sensor_id;sensor_type;location;lat;lon;timestamp;pressure;altitude;pressure_sealevel;temperature;humidity
25156;BME280;21913;52.456;13.634;2022-07-29T00:02:57;100393.66;;;19.98;73.36
25156;BME280;21913;52.456;13.634;2022-07-29T00:07:58;100389.25;;;19.99;73.41
25156;BME280;21913;52.456;13.634;2022-07-29T00:13:00;100384.00;;;19.99;73.16
25156;BME280;21913;52.456;13.634;2022-07-29T00:18:01;100381.38;;;19.99;73.49
25156;BME280;21913;52.456;13.634;2022-07-29T00:23:03;100370.94;;;19.97;73.42
25156;BME280;21913;52.456;13.634;2022-07-29T00:28:04;100368.25;;;19.99;73.42
25156;BME280;21913;52.456;13.634;2022-07-29T00:33:06;100364.75;;;19.98;73.42
25156;BME280;21913;52.456;13.634;2022-07-29T00:38:12;100363.00;;;19.99;73.32
25156;BME280;21913;52.456;13.634;2022-07-29T00:43:15;100359.50;;;19.98;73.35
25156;BME280;21913;52.456;13.634;2022-07-29T00:48:17;100351.63;;;19.98;73.19
25156;BME280;21913;52.456;13.634;2022-07-29T00:53:19;100338.50;;;19.98;73.31
25156;BME280;21913;52.456;13.634;2022-07-29T00:58:21;100337.66;;;19.98;73.33
25156;BME280;21913;52.456;13.634;2022-07-29T01:03:23;100332.41;;;19.98;73.38
25156;BME280;21913;52.456;13.634;2022-07-29T01:08:24;100325.38;;;19.98;73.39
25156;BME280;21913;52.456;13.634;2022-07-29T01:13:26;100310.53;;;19.97;73.20
25156;BME280;21913;52.456;13.634;2022-07-29T01:28:34;100302.66;;;19.97;73.05
25156;BME280;21913;52.456;13.634;2022-07-29T01:33:41;100289.53;;;19.97;73.28
25156;BME280;21913;52.456;13.634;2022-07-29T01:38:46;100289.53;;;19.97;73.07
25156;BME280;21913;52.456;13.634;2022-07-29T01:43:56;100293.00;;;19.98;73.38
25156;BME280;21913;52.456;13.634;2022-07-29T01:49:00;100284.28;;;19.97;73.35
25156;BME280;21913;52.456;13.634;2022-07-29T01:54:12;100277.25;;;19.98;73.33
25156;BME280;21913;52.456;13.634;2022-07-29T01:59:14;100277.25;;;19.98;73.12
25156;BME280;21913;52.456;13.634;2022-07-29T02:04:17;100273.75;;;19.97;73.28
25156;BME280;21913;52.456;13.634;2022-07-29T02:09:20;100267.66;;;19.96;73.22
25156;BME280;21913;52.456;13.634;2022-07-29T02:14:22;100276.41;;;19.97;73.35
25156;BME280;21913;52.456;13.634;2022-07-29T02:19:24;100276.41;;;19.97;73.20
25156;BME280;21913;52.456;13.634;2022-07-29T02:24:28;100275.53;;;19.96;73.16
25156;BME280;21913;52.456;13.634;2022-07-29T02:29:31;100271.13;;;19.97;73.08
25156;BME280;21913;52.456;13.634;2022-07-29T02:34:33;100272.91;;;19.96;73.14
25156;BME280;21913;52.456;13.634;2022-07-29T02:39:37;100266.75;;;19.98;73.11
25156;BME280;21913;52.456;13.634;2022-07-29T02:44:40;100265.03;;;19.96;73.12
25156;BME280;21913;52.456;13.634;2022-07-29T02:49:55;100267.66;;;19.96;73.06
25156;BME280;21913;52.456;13.634;2022-07-29T02:55:05;100261.56;;;19.96;73.29
25156;BME280;21913;52.456;13.634;2022-07-29T03:00:10;100260.63;;;19.97;73.35
25156;BME280;21913;52.456;13.634;2022-07-29T03:05:15;100248.41;;;19.96;73.34
25156;BME280;21913;52.456;13.634;2022-07-29T03:10:18;100254.53;;;19.96;73.14
25156;BME280;21913;52.456;13.634;2022-07-29T03:15:20;100259.78;;;19.96;73.03
25156;BME280;21913;52.456;13.634;2022-07-29T03:20:22;100252.81;;;19.95;73.24
25156;BME280;21913;52.456;13.634;2022-07-29T03:25:24;100255.44;;;19.95;73.01
25156;BME280;21913;52.456;13.634;2022-07-29T03:30:26;100262.44;;;19.95;73.29
25156;BME280;21913;52.456;13.634;2022-07-29T03:35:28;100261.56;;;19.96;73.25
25156;BME280;21913;52.456;13.634;2022-07-29T03:45:34;100260.69;;;19.95;73.31
25156;BME280;21913;52.456;13.634;2022-07-29T03:50:35;100244.06;;;19.95;73.24
25156;BME280;21913;52.456;13.634;2022-07-29T03:55:40;100251.06;;;19.96;73.05
25156;BME280;21913;52.456;13.634;2022-07-29T04:00:42;100253.69;;;19.96;73.31
25156;BME280;21913;52.456;13.634;2022-07-29T04:05:44;100252.81;;;19.95;73.32
25156;BME280;21913;52.456;13.634;2022-07-29T04:10:46;100245.81;;;19.96;73.28
25156;BME280;21913;52.456;13.634;2022-07-29T04:15:48;100245.81;;;19.96;73.25
25156;BME280;21913;52.456;13.634;2022-07-29T04:20:49;100242.31;;;19.95;73.15
25156;BME280;21913;52.456;13.634;2022-07-29T04:25:51;100238.81;;;19.95;73.04
25156;BME280;21913;52.456;13.634;2022-07-29T04:30:52;100230.94;;;19.95;72.99
25156;BME280;21913;52.456;13.634;2022-07-29T04:35:54;100232.66;;;19.96;73.05
25156;BME280;21913;52.456;13.634;2022-07-29T04:40:55;100226.56;;;19.95;73.29
25156;BME280;21913;52.456;13.634;2022-07-29T04:45:57;100220.44;;;19.95;73.15
25156;BME280;21913;52.456;13.634;2022-07-29T04:50:58;100224.81;;;19.94;73.36
25156;BME280;21913;52.456;13.634;2022-07-29T04:56:00;100238.81;;;19.95;73.28
25156;BME280;21913;52.456;13.634;2022-07-29T05:01:02;100240.56;;;19.94;73.22
25156;BME280;21913;52.456;13.634;2022-07-29T05:06:04;100248.41;;;19.96;73.22
25156;BME280;21913;52.456;13.634;2022-07-29T05:11:05;100256.34;;;19.94;73.16
25156;BME280;21913;52.456;13.634;2022-07-29T05:16:07;100262.44;;;19.95;73.16
25156;BME280;21913;52.456;13.634;2022-07-29T05:21:09;100261.59;;;19.94;73.42
25156;BME280;21913;52.456;13.634;2022-07-29T05:26:10;100271.22;;;19.95;73.25
25156;BME280;21913;52.456;13.634;2022-07-29T05:31:12;100267.75;;;19.93;72.96
25156;BME280;21913;52.456;13.634;2022-07-29T05:36:13;100253.72;;;19.94;73.27
25156;BME280;21913;52.456;13.634;2022-07-29T05:41:15;100261.59;;;19.94;73.20
25156;BME280;21913;52.456;13.634;2022-07-29T05:46:16;100260.72;;;19.94;73.26
25156;BME280;21913;52.456;13.634;2022-07-29T05:51:18;100273.84;;;19.94;73.17
25156;BME280;21913;52.456;13.634;2022-07-29T05:56:19;100265.97;;;19.94;73.19
25156;BME280;21913;52.456;13.634;2022-07-29T06:01:21;100266.84;;;19.94;73.18
25156;BME280;21913;52.456;13.634;2022-07-29T06:06:22;100272.09;;;19.94;73.25
25156;BME280;21913;52.456;13.634;2022-07-29T06:11:24;100266.84;;;19.94;72.98
25156;BME280;21913;52.456;13.634;2022-07-29T06:16:25;100272.09;;;19.94;73.01
25156;BME280;21913;52.456;13.634;2022-07-29T06:21:27;100287.84;;;19.94;73.27
25156;BME280;21913;52.456;13.634;2022-07-29T06:26:28;100291.38;;;19.93;73.25
25156;BME280;21913;52.456;13.634;2022-07-29T06:31:30;100306.22;;;19.94;73.31
25156;BME280;21913;52.456;13.634;2022-07-29T06:36:34;100311.47;;;19.94;73.02
25156;BME280;21913;52.456;13.634;2022-07-29T06:41:35;100312.41;;;19.93;73.04
25156;BME280;21913;52.456;13.634;2022-07-29T06:46:43;100319.34;;;19.94;73.09
25156;BME280;21913;52.456;13.634;2022-07-29T06:51:45;100333.34;;;19.95;73.37
25156;BME280;21913;52.456;13.634;2022-07-29T06:56:46;100335.13;;;19.94;73.13
25156;BME280;21913;52.456;13.634;2022-07-29T07:01:48;100336.88;;;19.94;72.98
25156;BME280;21913;52.456;13.634;2022-07-29T07:06:50;100329.00;;;19.94;73.09
25156;BME280;21913;52.456;13.634;2022-07-29T07:11:51;100329.84;;;19.94;73.12
25156;BME280;21913;52.456;13.634;2022-07-29T07:16:53;100342.13;;;19.94;73.06
25156;BME280;21913;52.456;13.634;2022-07-29T07:21:54;100343.00;;;19.94;73.15
25156;BME280;21913;52.456;13.634;2022-07-29T07:26:56;100345.63;;;19.94;73.28
25156;BME280;21913;52.456;13.634;2022-07-29T07:31:57;100331.59;;;19.95;73.14
25156;BME280;21913;52.456;13.634;2022-07-29T07:37:01;100321.97;;;19.94;73.12
25156;BME280;21913;52.456;13.634;2022-07-29T07:42:02;100314.09;;;19.94;73.17
25156;BME280;21913;52.456;13.634;2022-07-29T07:47:05;100311.47;;;19.94;73.27
25156;BME280;21913;52.456;13.634;2022-07-29T07:52:06;100314.09;;;19.94;73.25
25156;BME280;21913;52.456;13.634;2022-07-29T07:57:08;100317.59;;;19.95;73.28
25156;BME280;21913;52.456;13.634;2022-07-29T08:02:10;100314.94;;;19.96;73.23
25156;BME280;21913;52.456;13.634;2022-07-29T08:07:11;100315.72;;;19.99;73.01
25156;BME280;21913;52.456;13.634;2022-07-29T08:12:13;100306.91;;;20.01;73.09
25156;BME280;21913;52.456;13.634;2022-07-29T08:17:14;100305.97;;;20.02;73.07
25156;BME280;21913;52.456;13.634;2022-07-29T08:22:17;100306.78;;;20.04;73.07
25156;BME280;21913;52.456;13.634;2022-07-29T08:27:18;100301.59;;;20.03;72.92
25156;BME280;21913;52.456;13.634;2022-07-29T08:32:34;100304.22;;;20.03;73.04
25156;BME280;21913;52.456;13.634;2022-07-29T08:37:55;100298.97;;;20.03;73.26
25156;BME280;21913;52.456;13.634;2022-07-29T08:42:57;100296.28;;;20.04;73.19
25156;BME280;21913;52.456;13.634;2022-07-29T08:47:58;100295.41;;;20.04;73.28
25156;BME280;21913;52.456;13.634;2022-07-29T08:53:00;100308.53;;;20.04;73.22
25156;BME280;21913;52.456;13.634;2022-07-29T08:58:02;100297.97;;;20.05;73.35
25156;BME280;21913;52.456;13.634;2022-07-29T09:03:03;100295.31;;;20.07;73.37
25156;BME280;21913;52.456;13.634;2022-07-29T09:08:05;100290.84;;;20.09;73.02
25156;BME280;21913;52.456;13.634;2022-07-29T09:13:07;100298.69;;;20.10;73.00
25156;BME280;21913;52.456;13.634;2022-07-29T09:18:09;100289.03;;;20.11;73.03
25156;BME280;21913;52.456;13.634;2022-07-29T09:23:11;100287.25;;;20.11;73.20
25156;BME280;21913;52.456;13.634;2022-07-29T09:28:13;100289.84;;;20.13;73.16
25156;BME280;21913;52.456;13.634;2022-07-29T09:33:14;100289.84;;;20.13;72.90
25156;BME280;21913;52.456;13.634;2022-07-29T09:38:16;100288.06;;;20.13;73.07
25156;BME280;21913;52.456;13.634;2022-07-29T09:43:17;100287.22;;;20.13;72.89
25156;BME280;21913;52.456;13.634;2022-07-29T09:48:20;100297.66;;;20.14;73.26
25156;BME280;21913;52.456;13.634;2022-07-29T09:53:36;100292.41;;;20.14;73.21
25156;BME280;21913;52.456;13.634;2022-07-29T09:58:37;100289.78;;;20.14;73.23
25156;BME280;21913;52.456;13.634;2022-07-29T10:03:52;100286.31;;;20.14;73.30
25156;BME280;21913;52.456;13.634;2022-07-29T10:08:53;100294.19;;;20.14;73.37
25156;BME280;21913;52.456;13.634;2022-07-29T10:13:55;100283.69;;;20.14;73.29
25156;BME280;21913;52.456;13.634;2022-07-29T10:18:57;100286.31;;;20.14;73.10
25156;BME280;21913;52.456;13.634;2022-07-29T10:23:58;100285.38;;;20.15;73.40
25156;BME280;21913;52.456;13.634;2022-07-29T10:29:00;100281.91;;;20.14;73.25
25156;BME280;21913;52.456;13.634;2022-07-29T10:44:23;100275.88;;;20.11;73.50
25156;BME280;21913;52.456;13.634;2022-07-29T10:49:26;100268.88;;;20.11;73.30
25156;BME280;21913;52.456;13.634;2022-07-29T10:59:38;100278.53;;;20.11;73.32
25156;BME280;21913;52.456;13.634;2022-07-29T11:09:54;100268.94;;;20.10;73.68
25156;BME280;21913;52.456;13.634;2022-07-29T11:15:16;100269.84;;;20.09;73.46
25156;BME280;21913;52.456;13.634;2022-07-29T11:25:38;100266.31;;;20.10;73.56
25156;BME280;21913;52.456;13.634;2022-07-29T11:30:49;100270.69;;;20.09;73.67
25156;BME280;21913;52.456;13.634;2022-07-29T11:36:13;100270.75;;;20.08;73.70
25156;BME280;21913;52.456;13.634;2022-07-29T11:41:25;100278.66;;;20.08;73.79
25156;BME280;21913;52.456;13.634;2022-07-29T11:51:53;100269.84;;;20.09;73.89
25156;BME280;21913;52.456;13.634;2022-07-29T11:56:55;100269.91;;;20.07;73.79
25156;BME280;21913;52.456;13.634;2022-07-29T12:01:58;100265.50;;;20.08;73.62
25156;BME280;21913;52.456;13.634;2022-07-29T12:07:12;100268.13;;;20.08;73.85
25156;BME280;21913;52.456;13.634;2022-07-29T12:12:15;100270.75;;;20.08;73.88
25156;BME280;21913;52.456;13.634;2022-07-29T12:17:26;100268.13;;;20.08;73.90
25156;BME280;21913;52.456;13.634;2022-07-29T12:22:29;100272.53;;;20.07;73.91
25156;BME280;21913;52.456;13.634;2022-07-29T12:27:31;100276.88;;;20.08;73.88
25156;BME280;21913;52.456;13.634;2022-07-29T12:32:33;100266.38;;;20.08;73.81
25156;BME280;21913;52.456;13.634;2022-07-29T12:37:35;100271.63;;;20.08;73.66
25156;BME280;21913;52.456;13.634;2022-07-29T12:42:37;100280.41;;;20.07;73.64
25156;BME280;21913;52.456;13.634;2022-07-29T12:47:56;100274.31;;;20.07;73.81
25156;BME280;21913;52.456;13.634;2022-07-29T12:53:07;100280.41;;;20.07;73.66
25156;BME280;21913;52.456;13.634;2022-07-29T12:58:09;100276.03;;;20.08;73.71
25156;BME280;21913;52.456;13.634;2022-07-29T13:03:11;100280.41;;;20.07;73.98
25156;BME280;21913;52.456;13.634;2022-07-29T13:08:13;100280.41;;;20.07;73.75
25156;BME280;21913;52.456;13.634;2022-07-29T13:13:15;100272.53;;;20.07;73.81
25156;BME280;21913;52.456;13.634;2022-07-29T13:18:29;100276.94;;;20.07;73.92
25156;BME280;21913;52.456;13.634;2022-07-29T13:23:31;100277.78;;;20.07;73.72
25156;BME280;21913;52.456;13.634;2022-07-29T13:28:33;100280.41;;;20.07;73.91
25156;BME280;21913;52.456;13.634;2022-07-29T13:33:34;100279.56;;;20.07;73.90
25156;BME280;21913;52.456;13.634;2022-07-29T13:38:36;100279.56;;;20.07;73.68
25156;BME280;21913;52.456;13.634;2022-07-29T13:43:38;100281.34;;;20.06;73.67
25156;BME280;21913;52.456;13.634;2022-07-29T13:48:40;100276.94;;;20.07;73.70
25156;BME280;21913;52.456;13.634;2022-07-29T13:53:41;100273.47;;;20.06;73.88
25156;BME280;21913;52.456;13.634;2022-07-29T13:58:43;100275.19;;;20.06;73.77
25156;BME280;21913;52.456;13.634;2022-07-29T14:03:44;100271.69;;;20.07;73.75
25156;BME280;21913;52.456;13.634;2022-07-29T14:08:46;100267.31;;;20.06;73.94
25156;BME280;21913;52.456;13.634;2022-07-29T14:13:47;100260.31;;;20.06;73.58
25156;BME280;21913;52.456;13.634;2022-07-29T14:18:49;100269.06;;;20.07;73.94
25156;BME280;21913;52.456;13.634;2022-07-29T14:23:50;100269.06;;;20.07;73.94
25156;BME280;21913;52.456;13.634;2022-07-29T14:28:52;100276.06;;;20.06;73.91
25156;BME280;21913;52.456;13.634;2022-07-29T14:33:53;100276.06;;;20.06;73.63
25156;BME280;21913;52.456;13.634;2022-07-29T14:38:55;100273.47;;;20.06;73.92
25156;BME280;21913;52.456;13.634;2022-07-29T14:43:56;100270.81;;;20.06;73.67
25156;BME280;21913;52.456;13.634;2022-07-29T14:48:58;100269.06;;;20.07;73.89
25156;BME280;21913;52.456;13.634;2022-07-29T14:53:59;100266.44;;;20.07;73.90
25156;BME280;21913;52.456;13.634;2022-07-29T14:59:01;100273.47;;;20.06;73.91
25156;BME280;21913;52.456;13.634;2022-07-29T15:04:02;100267.31;;;20.06;73.92
25156;BME280;21913;52.456;13.634;2022-07-29T15:09:04;100263.81;;;20.07;73.96
25156;BME280;21913;52.456;13.634;2022-07-29T15:14:06;100260.31;;;20.06;73.95
25156;BME280;21913;52.456;13.634;2022-07-29T15:19:08;100264.69;;;20.06;73.65
25156;BME280;21913;52.456;13.634;2022-07-29T15:24:09;100264.69;;;20.06;73.63
25156;BME280;21913;52.456;13.634;2022-07-29T15:29:11;100262.97;;;20.05;73.88
25156;BME280;21913;52.456;13.634;2022-07-29T15:34:12;100259.44;;;20.06;73.91
25156;BME280;21913;52.456;13.634;2022-07-29T15:39:14;100259.44;;;20.06;73.73
25156;BME280;21913;52.456;13.634;2022-07-29T15:44:15;100254.19;;;20.06;74.05
25156;BME280;21913;52.456;13.634;2022-07-29T15:49:17;100261.22;;;20.05;73.87
25156;BME280;21913;52.456;13.634;2022-07-29T15:54:19;100262.94;;;20.06;73.99
25156;BME280;21913;52.456;13.634;2022-07-29T15:59:20;100253.28;;;20.07;74.00
25156;BME280;21913;52.456;13.634;2022-07-29T16:04:22;100256.81;;;20.06;73.93
25156;BME280;21913;52.456;13.634;2022-07-29T16:09:24;100256.78;;;20.07;73.99
25156;BME280;21913;52.456;13.634;2022-07-29T16:14:26;100255.06;;;20.06;73.94
25156;BME280;21913;52.456;13.634;2022-07-29T16:19:31;100255.91;;;20.07;73.89
25156;BME280;21913;52.456;13.634;2022-07-29T16:24:32;100262.06;;;20.06;73.80
25156;BME280;21913;52.456;13.634;2022-07-29T16:29:34;100262.03;;;20.07;73.85
25156;BME280;21913;52.456;13.634;2022-07-29T16:34:35;100266.44;;;20.07;73.72
25156;BME280;21913;52.456;13.634;2022-07-29T16:39:37;100270.75;;;20.08;74.05
25156;BME280;21913;52.456;13.634;2022-07-29T16:44:38;100265.50;;;20.08;74.11
25156;BME280;21913;52.456;13.634;2022-07-29T16:49:40;100277.78;;;20.07;74.06
25156;BME280;21913;52.456;13.634;2022-07-29T16:54:41;100272.53;;;20.07;74.05
25156;BME280;21913;52.456;13.634;2022-07-29T16:59:43;100265.56;;;20.06;73.98
25156;BME280;21913;52.456;13.634;2022-07-29T17:04:44;100275.16;;;20.07;74.04
25156;BME280;21913;52.456;13.634;2022-07-29T17:09:46;100278.66;;;20.08;74.10
25156;BME280;21913;52.456;13.634;2022-07-29T17:14:47;100283.91;;;20.08;73.81
25156;BME280;21913;52.456;13.634;2022-07-29T17:19:49;100283.91;;;20.08;74.07
25156;BME280;21913;52.456;13.634;2022-07-29T17:24:50;100283.97;;;20.06;73.92
25156;BME280;21913;52.456;13.634;2022-07-29T17:29:52;100283.03;;;20.07;73.78
25156;BME280;21913;52.456;13.634;2022-07-29T17:34:53;100292.69;;;20.07;74.07
25156;BME280;21913;52.456;13.634;2022-07-29T17:39:55;100287.44;;;20.07;74.02
25156;BME280;21913;52.456;13.634;2022-07-29T17:45:00;100297.03;;;20.08;73.99
25156;BME280;21913;52.456;13.634;2022-07-29T17:50:02;100304.06;;;20.07;74.13
25156;BME280;21913;52.456;13.634;2022-07-29T17:55:05;100309.31;;;20.07;74.12
25156;BME280;21913;52.456;13.634;2022-07-29T18:00:07;100307.41;;;20.11;73.12
25156;BME280;21913;52.456;13.634;2022-07-29T18:05:09;100309.41;;;20.29;69.05
25156;BME280;21913;52.456;13.634;2022-07-29T18:10:10;100317.63;;;20.43;67.07
25156;BME280;21913;52.456;13.634;2022-07-29T18:15:13;100311.50;;;20.44;66.84
25156;BME280;21913;52.456;13.634;2022-07-29T18:20:14;100317.91;;;20.36;67.75
25156;BME280;21913;52.456;13.634;2022-07-29T18:25:16;100315.53;;;20.30;68.31
25156;BME280;21913;52.456;13.634;2022-07-29T18:30:17;100313.97;;;20.24;69.46
25156;BME280;21913;52.456;13.634;2022-07-29T18:35:19;100327.25;;;20.19;69.74
25156;BME280;21913;52.456;13.634;2022-07-29T18:40:21;100330.84;;;20.17;70.48
25156;BME280;21913;52.456;13.634;2022-07-29T18:45:22;100345.00;;;20.13;70.66
25156;BME280;21913;52.456;13.634;2022-07-29T18:50:24;100347.19;;;20.25;69.76
25156;BME280;21913;52.456;13.634;2022-07-29T18:55:29;100358.38;;;20.80;66.64
25156;BME280;21913;52.456;13.634;2022-07-29T19:00:31;100352.91;;;21.33;65.28
25156;BME280;21913;52.456;13.634;2022-07-29T19:05:32;100349.25;;;21.79;64.24
25156;BME280;21913;52.456;13.634;2022-07-29T19:10:34;100361.06;;;22.13;63.49
25156;BME280;21913;52.456;13.634;2022-07-29T19:15:35;100358.41;;;22.34;63.10
25156;BME280;21913;52.456;13.634;2022-07-29T19:20:37;100356.09;;;22.46;62.67
25156;BME280;21913;52.456;13.634;2022-07-29T19:25:38;100361.03;;;22.54;62.84
25156;BME280;21913;52.456;13.634;2022-07-29T19:30:40;100365.16;;;22.60;62.93
25156;BME280;21913;52.456;13.634;2022-07-29T19:35:44;100368.53;;;22.63;62.86
25156;BME280;21913;52.456;13.634;2022-07-29T19:40:45;100372.88;;;22.64;62.91
25156;BME280;21913;52.456;13.634;2022-07-29T19:45:48;100384.28;;;22.65;62.98
25156;BME280;21913;52.456;13.634;2022-07-29T19:50:49;100392.28;;;22.63;63.35
25156;BME280;21913;52.456;13.634;2022-07-29T19:55:51;100398.41;;;22.64;63.35
25156;BME280;21913;52.456;13.634;2022-07-29T20:00:52;100401.16;;;22.61;63.60
25156;BME280;21913;52.456;13.634;2022-07-29T20:05:54;100402.09;;;22.60;63.79
25156;BME280;21913;52.456;13.634;2022-07-29T20:10:55;100401.31;;;22.57;63.58
25156;BME280;21913;52.456;13.634;2022-07-29T20:15:57;100391.69;;;22.56;63.85
25156;BME280;21913;52.456;13.634;2022-07-29T20:20:59;100408.41;;;22.55;63.96
25156;BME280;21913;52.456;13.634;2022-07-29T20:26:01;100409.50;;;22.51;64.01
25156;BME280;21913;52.456;13.634;2022-07-29T20:31:03;100409.50;;;22.51;64.12
25156;BME280;21913;52.456;13.634;2022-07-29T20:36:05;100406.97;;;22.48;64.49
25156;BME280;21913;52.456;13.634;2022-07-29T20:41:06;100413.25;;;22.46;64.46
25156;BME280;21913;52.456;13.634;2022-07-29T20:46:08;100406.31;;;22.43;64.63
25156;BME280;21913;52.456;13.634;2022-07-29T20:51:10;100409.03;;;22.42;64.59
25156;BME280;21913;52.456;13.634;2022-07-29T20:56:12;100410.00;;;22.39;64.99
25156;BME280;21913;52.456;13.634;2022-07-29T21:01:13;100403.94;;;22.37;65.00
25156;BME280;21913;52.456;13.634;2022-07-29T21:06:15;100410.22;;;22.35;64.96
25156;BME280;21913;52.456;13.634;2022-07-29T21:11:18;100412.03;;;22.33;65.16
25156;BME280;21913;52.456;13.634;2022-07-29T21:16:19;100418.31;;;22.30;65.41
25156;BME280;21913;52.456;13.634;2022-07-29T21:21:23;100412.31;;;22.26;65.53
25156;BME280;21913;52.456;13.634;2022-07-29T21:26:24;100406.25;;;22.24;65.65
25156;BME280;21913;52.456;13.634;2022-07-29T21:31:26;100408.94;;;22.23;65.50
25156;BME280;21913;52.456;13.634;2022-07-29T21:36:27;100415.22;;;22.20;65.71
25156;BME280;21913;52.456;13.634;2022-07-29T21:41:47;100412.66;;;22.19;65.75
25156;BME280;21913;52.456;13.634;2022-07-29T21:46:49;100427.66;;;22.17;66.00
25156;BME280;21913;52.456;13.634;2022-07-29T21:51:50;100425.16;;;22.14;65.87
25156;BME280;21913;52.456;13.634;2022-07-29T21:56:52;100427.84;;;22.12;65.87
25156;BME280;21913;52.456;13.634;2022-07-29T22:07:00;100427.09;;;22.09;66.00
25156;BME280;21913;52.456;13.634;2022-07-29T22:12:02;100432.38;;;22.09;66.35
25156;BME280;21913;52.456;13.634;2022-07-29T22:17:03;100426.34;;;22.05;66.52
25156;BME280;21913;52.456;13.634;2022-07-29T22:22:05;100422.84;;;22.04;66.30
25156;BME280;21913;52.456;13.634;2022-07-29T22:27:08;100411.56;;;22.01;66.53
25156;BME280;21913;52.456;13.634;2022-07-29T22:32:09;100415.22;;;21.98;66.71
25156;BME280;21913;52.456;13.634;2022-07-29T22:37:11;100412.69;;;21.95;66.83
25156;BME280;21913;52.456;13.634;2022-07-29T22:42:12;100418.88;;;21.94;66.67
25156;BME280;21913;52.456;13.634;2022-07-29T22:47:15;100422.44;;;21.93;67.02
25156;BME280;21913;52.456;13.634;2022-07-29T22:52:17;100427.81;;;21.90;66.74
25156;BME280;21913;52.456;13.634;2022-07-29T22:57:18;100434.03;;;21.89;66.82
25156;BME280;21913;52.456;13.634;2022-07-29T23:02:21;100423.56;;;21.88;67.25
25156;BME280;21913;52.456;13.634;2022-07-29T23:07:23;100418.34;;;21.86;66.85
25156;BME280;21913;52.456;13.634;2022-07-29T23:12:24;100424.50;;;21.85;67.00
25156;BME280;21913;52.456;13.634;2022-07-29T23:17:26;100415.84;;;21.83;67.25
25156;BME280;21913;52.456;13.634;2022-07-29T23:22:27;100413.28;;;21.82;67.30
25156;BME280;21913;52.456;13.634;2022-07-29T23:27:29;100406.34;;;21.79;67.19
25156;BME280;21913;52.456;13.634;2022-07-29T23:32:37;100399.34;;;21.78;67.48
25156;BME280;21913;52.456;13.634;2022-07-29T23:37:38;100400.28;;;21.77;67.28
25156;BME280;21913;52.456;13.634;2022-07-29T23:42:44;100399.50;;;21.75;67.38
25156;BME280;21913;52.456;13.634;2022-07-29T23:47:45;100395.13;;;21.74;67.72
25156;BME280;21913;52.456;13.634;2022-07-29T23:52:47;100393.41;;;21.73;67.47
25156;BME280;21913;52.456;13.634;2022-07-29T23:57:48;100392.63;;;21.71;67.90
